sensor_id;sensor_type;location;lat;lon;timestamp;P1;durP1;ratioP1;P2;durP2;ratioP2
43690;SDS011;29293;52.190;21.226;2022-07-09T00:03:21;6.90;;;2.70;;
43690;SDS011;29293;52.190;21.226;2022-07-09T00:18:27;3.80;;;2.70;;
43690;SDS011;29293;52.190;21.226;2022-07-09T00:33:36;7.20;;;3.20;;
43690;SDS011;29293;52.190;21.226;2022-07-09T00:48:42;7.00;;;3.40;;
43690;SDS011;29293;52.190;21.226;2022-07-09T01:03:50;7.00;;;2.70;;
43690;SDS011;29293;52.190;21.226;2022-07-09T01:18:56;9.90;;;3.70;;
43690;SDS011;29293;52.190;21.226;2022-07-09T01:34:03;4.80;;;2.80;;
43690;SDS011;29293;52.190;21.226;2022-07-09T01:49:13;9.10;;;3.50;;
43690;SDS011;29293;52.190;21.226;2022-07-09T02:04:20;5.10;;;3.30;;
43690;SDS011;29293;52.190;21.226;2022-07-09T02:19:28;9.40;;;3.30;;
43690;SDS011;29293;52.190;21.226;2022-07-09T02:34:34;7.50;;;3.20;;
43690;SDS011;29293;52.190;21.226;2022-07-09T02:49:40;6.20;;;3.10;;
43690;SDS011;29293;52.190;21.226;2022-07-09T03:04:48;6.80;;;3.30;;
43690;SDS011;29293;52.190;21.226;2022-07-09T03:19:54;9.90;;;3.80;;
43690;SDS011;29293;52.190;21.226;2022-07-09T03:35:00;6.40;;;3.50;;
43690;SDS011;29293;52.190;21.226;2022-07-09T03:50:08;6.60;;;4.00;;
43690;SDS011;29293;52.190;21.226;2022-07-09T04:05:18;9.80;;;5.00;;
43690;SDS011;29293;52.190;21.226;2022-07-09T04:20:24;9.70;;;4.70;;
43690;SDS011;29293;52.190;21.226;2022-07-09T04:35:31;9.60;;;4.80;;
43690;SDS011;29293;52.190;21.226;2022-07-09T04:50:38;7.00;;;4.10;;
43690;SDS011;29293;52.190;21.226;2022-07-09T05:05:44;9.80;;;4.80;;
43690;SDS011;29293;52.190;21.226;2022-07-09T05:20:52;8.10;;;4.90;;
43690;SDS011;29293;52.190;21.226;2022-07-09T05:35:58;12.90;;;5.10;;
43690;SDS011;29293;52.190;21.226;2022-07-09T05:51:04;10.00;;;4.90;;
43690;SDS011;29293;52.190;21.226;2022-07-09T06:06:11;10.10;;;4.80;;
43690;SDS011;29293;52.190;21.226;2022-07-09T06:21:17;8.40;;;4.20;;
43690;SDS011;29293;52.190;21.226;2022-07-09T06:36:24;10.60;;;5.00;;
43690;SDS011;29293;52.190;21.226;2022-07-09T06:51:30;8.00;;;4.50;;
43690;SDS011;29293;52.190;21.226;2022-07-09T07:06:40;11.80;;;4.30;;
43690;SDS011;29293;52.190;21.226;2022-07-09T07:21:50;9.50;;;5.30;;
43690;SDS011;29293;52.190;21.226;2022-07-09T07:37:06;7.60;;;4.70;;
43690;SDS011;29293;52.190;21.226;2022-07-09T07:52:14;5.30;;;4.80;;
43690;SDS011;29293;52.190;21.226;2022-07-09T08:07:41;7.60;;;4.90;;
43690;SDS011;29293;52.190;21.226;2022-07-09T08:23:17;8.10;;;3.60;;
43690;SDS011;29293;52.190;21.226;2022-07-09T08:38:25;4.40;;;1.90;;
43690;SDS011;29293;52.190;21.226;2022-07-09T08:53:48;3.00;;;1.40;;
43690;SDS011;29293;52.190;21.226;2022-07-09T09:09:26;5.00;;;1.40;;
43690;SDS011;29293;52.190;21.226;2022-07-09T09:25:19;4.20;;;1.60;;
43690;SDS011;29293;52.190;21.226;2022-07-09T09:40:29;5.30;;;1.40;;
43690;SDS011;29293;52.190;21.226;2022-07-09T09:55:39;4.40;;;1.30;;
43690;SDS011;29293;52.190;21.226;2022-07-09T10:27:04;4.00;;;1.60;;
43690;SDS011;29293;52.190;21.226;2022-07-09T10:42:26;7.20;;;1.80;;
43690;SDS011;29293;52.190;21.226;2022-07-09T11:12:55;4.40;;;1.50;;
43690;SDS011;29293;52.190;21.226;2022-07-09T11:28:47;8.10;;;2.20;;
43690;SDS011;29293;52.190;21.226;2022-07-09T11:45:01;3.10;;;1.40;;
43690;SDS011;29293;52.190;21.226;2022-07-09T12:00:39;4.70;;;1.20;;
43690;SDS011;29293;52.190;21.226;2022-07-09T12:16:07;4.90;;;1.40;;
43690;SDS011;29293;52.190;21.226;2022-07-09T12:31:17;3.90;;;1.70;;
43690;SDS011;29293;52.190;21.226;2022-07-09T12:46:48;2.90;;;1.30;;
43690;SDS011;29293;52.190;21.226;2022-07-09T13:02:07;9.20;;;1.50;;
43690;SDS011;29293;52.190;21.226;2022-07-09T13:17:18;6.80;;;2.00;;
43690;SDS011;29293;52.190;21.226;2022-07-09T13:32:32;3.70;;;1.70;;
43690;SDS011;29293;52.190;21.226;2022-07-09T13:48:31;4.60;;;1.80;;
43690;SDS011;29293;52.190;21.226;2022-07-09T14:03:57;7.80;;;2.70;;
43690;SDS011;29293;52.190;21.226;2022-07-09T14:19:21;6.00;;;2.30;;
43690;SDS011;29293;52.190;21.226;2022-07-09T14:34:45;8.20;;;2.60;;
43690;SDS011;29293;52.190;21.226;2022-07-09T14:50:10;5.70;;;2.70;;
43690;SDS011;29293;52.190;21.226;2022-07-09T15:05:30;5.80;;;2.40;;
43690;SDS011;29293;52.190;21.226;2022-07-09T15:20:54;4.60;;;2.70;;
43690;SDS011;29293;52.190;21.226;2022-07-09T15:36:14;4.30;;;2.40;;
43690;SDS011;29293;52.190;21.226;2022-07-09T15:51:20;4.90;;;2.70;;
43690;SDS011;29293;52.190;21.226;2022-07-09T16:06:26;7.80;;;3.20;;
43690;SDS011;29293;52.190;21.226;2022-07-09T16:21:33;5.80;;;3.10;;
43690;SDS011;29293;52.190;21.226;2022-07-09T16:36:56;7.10;;;3.30;;
43690;SDS011;29293;52.190;21.226;2022-07-09T16:52:05;11.00;;;3.80;;
43690;SDS011;29293;52.190;21.226;2022-07-09T17:07:11;6.80;;;3.20;;
43690;SDS011;29293;52.190;21.226;2022-07-09T17:22:18;9.70;;;3.00;;
43690;SDS011;29293;52.190;21.226;2022-07-09T17:37:33;5.80;;;2.90;;
43690;SDS011;29293;52.190;21.226;2022-07-09T17:52:41;5.60;;;2.90;;
43690;SDS011;29293;52.190;21.226;2022-07-09T18:07:50;5.70;;;3.00;;
43690;SDS011;29293;52.190;21.226;2022-07-09T18:22:57;8.20;;;3.00;;
43690;SDS011;29293;52.190;21.226;2022-07-09T18:38:04;6.40;;;3.00;;
43690;SDS011;29293;52.190;21.226;2022-07-09T18:53:11;5.20;;;3.40;;
43690;SDS011;29293;52.190;21.226;2022-07-09T19:08:18;5.50;;;3.60;;
43690;SDS011;29293;52.190;21.226;2022-07-09T19:23:41;6.80;;;3.50;;
43690;SDS011;29293;52.190;21.226;2022-07-09T19:38:50;8.20;;;3.30;;
43690;SDS011;29293;52.190;21.226;2022-07-09T19:54:06;5.80;;;3.50;;
43690;SDS011;29293;52.190;21.226;2022-07-09T20:09:12;8.70;;;3.50;;
43690;SDS011;29293;52.190;21.226;2022-07-09T20:24:19;10.10;;;3.70;;
43690;SDS011;29293;52.190;21.226;2022-07-09T20:39:33;5.50;;;2.60;;
43690;SDS011;29293;52.190;21.226;2022-07-09T20:54:57;6.60;;;3.80;;
43690;SDS011;29293;52.190;21.226;2022-07-09T21:10:17;8.00;;;3.20;;
43690;SDS011;29293;52.190;21.226;2022-07-09T21:25:41;10.70;;;3.90;;
43690;SDS011;29293;52.190;21.226;2022-07-09T21:41:09;5.10;;;3.40;;
43690;SDS011;29293;52.190;21.226;2022-07-09T21:56:19;11.20;;;4.10;;
43690;SDS011;29293;52.190;21.226;2022-07-09T22:11:32;7.20;;;4.30;;
43690;SDS011;29293;52.190;21.226;2022-07-09T22:27:12;8.10;;;3.80;;
43690;SDS011;29293;52.190;21.226;2022-07-09T22:42:25;8.00;;;4.60;;
43690;SDS011;29293;52.190;21.226;2022-07-09T22:57:44;6.70;;;4.20;;
43690;SDS011;29293;52.190;21.226;2022-07-09T23:13:12;9.70;;;5.00;;
43690;SDS011;29293;52.190;21.226;2022-07-09T23:28:40;8.60;;;4.90;;
43690;SDS011;29293;52.190;21.226;2022-07-09T23:44:07;7.40;;;4.70;;
43690;SDS011;29293;52.190;21.226;2022-07-09T23:59:39;6.20;;;4.30;;
